Miyakojima, Japan

8:53 PM JST on August 29, 2014 (GMT +0900)
Miyako | Change Station
CLOSE
Current Station
Airport
Location: Miyakojima,
Elevation: 135 ft
Nearby Weather Stations

Elev 135 ft 24.79 °N, 125.28 °E | Updated 1 hour ago

Partly Cloudy
Partly Cloudy
84 °F
Feels Like 92 °F
N
6
Wind Variable Wind from SE

Today
High -- | Low -- °F
--% Chance of Precip.
Yesterday
High -- | Low -- °F
Precip. -- in
6:18 AM 7:00 PM
Waxing Crescent, 14% visible
Pressure 29.89 in
Visibility 6.2 miles
Clouds Few 2500 ft
Heat Index 92 °F
Dew Point 75 °F
Humidity 74%
Rainfall 0.00 in
Snow Depth Not available.
UV 0 out of 12
Pollen Not available.
Air Quality Not available.
Flu Activity Not available.
METAR ROMY 291000Z 14005KT 9999 FEW025 SCT/// 29/24 Q1012

More Conditions Fewer Conditions

Pressure 29.89 in
Visibility 6.2 miles
Clouds Few 2500 ft
Heat Index 92 °F
Dew Point 75 °F
Humidity 74%
Rainfall 0.00 in
Snow Depth Not available.
UV 0 out of 12
Pollen Not available.
Air Quality Not available.
Flu Activity Not available.
METAR ROMY 291000Z 14005KT 9999 FEW025 SCT/// 29/24 Q1012

More Conditions Fewer Conditions

10-Day Weather Forecast

Almanac

Astronomy

Aug. 29, 2014 Rise Set
Actual Time 6:18 AM JST 7:00 PM JST
Civil Twilight 5:55 AM JST 7:24 PM JST
Nautical Twilight 5:27 AM JST 7:51 PM JST
Astronomical Twilight 5:00 AM JST 8:19 PM JST
Moon 9:09 AM JST 9:05 PM JST
Length of Visible Light 13h 28m
Length of Day
12h 42m
Tomorrow will be 1m 21s shorter.
Waxing Crescent, 14% of the Moon is Illuminated
Today
Waxing Crescent
Sep 2
First Quarter
Sep 8
Full
Sep 15
Last Quarter
Sep 24
New

Yesterday's Extremes

Country Highs Country Lows

Community

WunderPhotos

Upload Photos

1,748,216 photos uploaded!

Nearby

Snow Depth

Not available.

Earthquake Activity

City Distance Mag. Time & Date
No recent earthquake activity has been reported nearby.
Minimum magnitude displayed is 2.5.

Coastal Water Temperatures

Place Temperature
No Stations Reporting

Nearby Weather Stations